Government of Jersey

Home Log in

Channel Islands Terminal Aerodrome Forecasts (TAFs)

Jersey Airport - EGJJ

EGJJ 170458Z 1706/1715 16005KT 9999 FEW015 BKN035 PROB40 TEMPO 1706/1715 8000 SHRA BKN015 PROB30 TEMPO 1708/1712 BKN010=

Guernsey Airport - EGJB

EGJB 170458Z 1706/1715 VRB03KT 9999 FEW015 BKN035 PROB40 TEMPO 1706/1715 03010KT 8000 SHRA BKN015=

Alderney Airport - EGJA

EGJA 161357Z 1615/1700 07010KT 9999 FEW020 SCT025 BKN035 PROB30 TEMPO 1615/1700 8000 SHRA BKN015 BECMG 1616/1618 13005KT=